createdAt,value
2018-06-30T00:00:06.757Z,24.34
2018-06-30T00:02:38.096Z,24.41
2018-06-30T00:05:08.839Z,24.37
2018-06-30T00:07:39.457Z,24.31
2018-06-30T00:10:10.118Z,24.25
2018-06-30T00:12:40.998Z,24.23
2018-06-30T00:15:11.686Z,24.34
2018-06-30T00:17:42.670Z,24.22
2018-06-30T00:20:12.772Z,24.48
2018-06-30T00:22:43.678Z,24.47
2018-06-30T00:25:14.621Z,24.41
2018-06-30T00:27:45.297Z,24.47
2018-06-30T00:30:16.026Z,24.44
2018-06-30T00:32:46.745Z,24.50
2018-06-30T00:35:17.446Z,24.50
2018-06-30T00:37:48.337Z,24.44
2018-06-30T00:40:18.981Z,24.41
2018-06-30T00:42:49.781Z,24.33
2018-06-30T00:45:20.530Z,24.33
2018-06-30T00:47:51.177Z,24.22
2018-06-30T00:50:21.897Z,24.15
2018-06-30T00:52:52.625Z,24.30
2018-06-30T00:55:23.422Z,24.26
2018-06-30T00:57:54.141Z,24.26
2018-06-30T01:00:24.709Z,24.30
2018-06-30T01:02:55.537Z,24.21
2018-06-30T01:05:26.169Z,24.04
2018-06-30T01:07:57.265Z,23.92
2018-06-30T01:10:27.921Z,24.05
2018-06-30T01:12:58.877Z,24.01
2018-06-30T01:15:29.396Z,23.96
2018-06-30T01:18:00.082Z,23.97
2018-06-30T01:20:30.747Z,23.96
2018-06-30T01:23:01.521Z,23.79
2018-06-30T01:25:32.269Z,24.02
2018-06-30T01:28:03.021Z,23.96
2018-06-30T01:30:33.112Z,24.01
2018-06-30T01:33:03.854Z,24.07
2018-06-30T01:35:34.533Z,24.00
2018-06-30T01:38:05.216Z,23.95
2018-06-30T01:40:35.412Z,23.89
2018-06-30T01:43:06.416Z,23.83
2018-06-30T01:45:37.157Z,23.87
2018-06-30T01:48:08.093Z,23.97
2018-06-30T01:50:38.785Z,23.99
2018-06-30T01:53:09.786Z,24.07
2018-06-30T01:55:40.406Z,24.08
2018-06-30T01:58:11.022Z,24.13
2018-06-30T02:00:42.030Z,24.26
2018-06-30T02:03:12.169Z,24.24
2018-06-30T02:05:42.866Z,24.27
2018-06-30T02:08:13.653Z,24.34
2018-06-30T02:10:44.305Z,24.37
2018-06-30T02:13:15.039Z,24.34
2018-06-30T02:15:45.791Z,24.39
2018-06-30T02:18:16.532Z,24.39
2018-06-30T02:20:47.282Z,24.44
2018-06-30T02:23:18.062Z,24.41
2018-06-30T02:25:48.633Z,24.45
2018-06-30T02:28:19.614Z,24.43
2018-06-30T02:30:50.261Z,24.41
2018-06-30T02:33:21.111Z,24.44
2018-06-30T02:35:51.782Z,24.44
2018-06-30T02:38:22.404Z,24.29
2018-06-30T02:40:52.995Z,24.38
2018-06-30T02:43:23.969Z,24.35
2018-06-30T02:45:54.763Z,24.36
2018-06-30T02:48:25.593Z,24.43
2018-06-30T02:50:56.229Z,24.42
2018-06-30T02:53:26.970Z,24.33
2018-06-30T02:55:57.683Z,24.23
2018-06-30T02:58:28.589Z,24.27
2018-06-30T03:00:59.484Z,24.23
2018-06-30T03:03:30.104Z,24.19
2018-06-30T03:06:00.795Z,24.25
2018-06-30T03:08:31.357Z,24.30
2018-06-30T03:11:02.014Z,24.44
2018-06-30T03:13:32.786Z,24.37
2018-06-30T03:16:03.373Z,24.38
2018-06-30T03:18:34.081Z,24.37
2018-06-30T03:21:04.806Z,24.20
2018-06-30T03:23:35.467Z,24.40
2018-06-30T03:26:06.050Z,24.41
2018-06-30T03:28:36.825Z,24.44
2018-06-30T03:31:07.680Z,24.46
2018-06-30T03:33:38.997Z,24.59
2018-06-30T03:36:09.561Z,24.58
2018-06-30T03:38:40.506Z,24.63
2018-06-30T03:41:11.045Z,24.59
2018-06-30T03:43:41.793Z,24.63
2018-06-30T03:46:12.543Z,24.73
2018-06-30T03:48:43.369Z,24.52
2018-06-30T03:51:13.918Z,24.76
2018-06-30T03:53:44.652Z,24.60
2018-06-30T03:56:15.321Z,24.73
2018-06-30T03:58:46.377Z,24.75
2018-06-30T04:01:17.185Z,24.60
2018-06-30T04:03:48.001Z,24.64
2018-06-30T04:06:18.569Z,24.39
2018-06-30T04:08:49.390Z,24.52
2018-06-30T04:11:20.018Z,24.29
2018-06-30T04:13:50.706Z,24.36
2018-06-30T04:16:21.377Z,24.43
2018-06-30T04:18:52.229Z,24.40
2018-06-30T04:21:22.957Z,24.27
2018-06-30T04:23:53.845Z,24.26
2018-06-30T04:26:24.629Z,24.49
2018-06-30T04:28:55.433Z,24.32
2018-06-30T04:31:26.201Z,24.22
2018-06-30T04:33:57.037Z,24.26
2018-06-30T04:36:27.730Z,24.41
2018-06-30T04:38:58.614Z,24.47
2018-06-30T04:41:29.276Z,24.65
2018-06-30T04:44:00.154Z,24.53
2018-06-30T04:46:30.796Z,24.79
2018-06-30T04:49:01.593Z,24.75
2018-06-30T04:51:32.326Z,24.78
2018-06-30T04:54:03.049Z,24.81
2018-06-30T04:56:33.686Z,25.03
2018-06-30T04:59:04.431Z,25.21
2018-06-30T05:01:34.897Z,25.43
2018-06-30T05:04:05.781Z,25.59
2018-06-30T05:06:36.481Z,25.68
2018-06-30T05:09:09.437Z,25.98
2018-06-30T05:11:40.145Z,26.10
2018-06-30T05:14:10.858Z,25.99
2018-06-30T05:16:41.477Z,25.95
2018-06-30T05:19:12.157Z,25.79
2018-06-30T05:21:42.806Z,26.06
2018-06-30T05:24:13.633Z,26.20
2018-06-30T05:26:44.273Z,26.47
2018-06-30T05:29:14.969Z,26.54
2018-06-30T05:31:45.641Z,26.81
2018-06-30T05:34:16.324Z,27.13
2018-06-30T05:36:47.102Z,26.78
2018-06-30T05:39:17.917Z,26.93
2018-06-30T05:41:48.637Z,27.01
2018-06-30T05:44:19.485Z,27.21
2018-06-30T05:46:50.158Z,27.07
2018-06-30T05:49:20.981Z,27.18
2018-06-30T05:51:51.617Z,27.19
2018-06-30T05:54:22.621Z,27.69
2018-06-30T05:56:53.176Z,27.97
2018-06-30T05:59:24.327Z,28.27
2018-06-30T06:01:54.957Z,28.57
2018-06-30T06:04:25.697Z,28.36
2018-06-30T06:06:56.321Z,28.36
2018-06-30T06:09:27.564Z,28.39
2018-06-30T06:11:58.254Z,28.37
2018-06-30T06:14:29.043Z,28.35
2018-06-30T06:16:59.665Z,28.21
2018-06-30T06:19:30.434Z,28.37
2018-06-30T06:22:01.036Z,28.54
2018-06-30T06:24:31.994Z,28.73
2018-06-30T06:27:02.518Z,28.87
2018-06-30T06:29:33.290Z,29.00
2018-06-30T06:32:03.449Z,28.76
2018-06-30T06:34:34.145Z,28.61
2018-06-30T06:37:05.002Z,28.42
2018-06-30T06:39:35.613Z,28.56
2018-06-30T06:42:06.441Z,28.78
2018-06-30T06:44:37.493Z,29.03
2018-06-30T06:47:08.161Z,29.13
2018-06-30T06:49:38.916Z,29.04
2018-06-30T06:52:09.541Z,29.31
2018-06-30T06:54:40.475Z,29.27
2018-06-30T06:57:11.101Z,30.26
2018-06-30T06:59:41.917Z,30.41
2018-06-30T07:02:13.073Z,29.92
2018-06-30T07:04:43.742Z,29.82
2018-06-30T07:07:14.457Z,29.22
2018-06-30T07:09:45.206Z,29.22
2018-06-30T07:12:15.903Z,29.42
2018-06-30T07:14:46.638Z,28.98
2018-06-30T07:17:17.282Z,28.64
2018-06-30T07:19:48.183Z,28.98
2018-06-30T07:22:18.885Z,28.81
2018-06-30T07:24:49.617Z,28.26
2018-06-30T07:27:20.214Z,28.35
2018-06-30T07:29:50.882Z,28.72
2018-06-30T07:32:21.655Z,28.85
2018-06-30T07:34:52.416Z,28.75
2018-06-30T07:37:23.106Z,28.68
2018-06-30T07:39:53.841Z,29.19
2018-06-30T07:42:24.505Z,29.90
2018-06-30T07:44:55.310Z,30.30
2018-06-30T07:47:26.022Z,30.47
2018-06-30T07:49:56.854Z,30.08
2018-06-30T07:52:27.569Z,30.03
2018-06-30T07:54:58.248Z,29.62
2018-06-30T07:57:28.909Z,29.51
2018-06-30T07:59:59.962Z,29.41
2018-06-30T08:02:30.581Z,29.05
2018-06-30T08:05:01.307Z,29.20
2018-06-30T08:07:32.010Z,29.30
2018-06-30T08:10:02.770Z,29.09
2018-06-30T08:12:33.463Z,29.13
2018-06-30T08:15:04.322Z,29.04
2018-06-30T08:17:34.834Z,29.02
2018-06-30T08:20:05.701Z,29.08
2018-06-30T08:22:36.364Z,29.17
2018-06-30T08:25:07.697Z,29.24
2018-06-30T08:27:38.325Z,29.06
2018-06-30T08:30:09.283Z,28.79
2018-06-30T08:32:39.812Z,28.82
2018-06-30T08:35:10.522Z,29.17
2018-06-30T08:37:41.214Z,28.92
2018-06-30T08:40:12.002Z,29.18
2018-06-30T08:42:42.710Z,29.16
2018-06-30T08:45:13.502Z,29.70
2018-06-30T08:47:44.362Z,29.43
2018-06-30T08:50:15.099Z,29.59
2018-06-30T08:52:45.761Z,29.55
2018-06-30T08:55:16.732Z,29.38
2018-06-30T08:57:47.329Z,29.69
2018-06-30T09:00:17.958Z,30.19
2018-06-30T09:02:48.597Z,30.63
2018-06-30T09:05:19.474Z,30.25
2018-06-30T09:07:50.222Z,30.16
2018-06-30T09:10:21.098Z,30.09
2018-06-30T09:12:51.682Z,29.79
2018-06-30T09:15:22.598Z,29.71
2018-06-30T09:17:53.202Z,29.07
2018-06-30T09:20:24.006Z,28.83
2018-06-30T09:22:54.689Z,28.76
2018-06-30T09:25:25.721Z,28.38
2018-06-30T09:27:56.222Z,28.80
2018-06-30T09:30:27.021Z,28.54
2018-06-30T09:32:57.601Z,28.38
2018-06-30T09:35:28.309Z,28.33
2018-06-30T09:37:59.097Z,28.33
2018-06-30T09:40:30.065Z,28.67
2018-06-30T09:43:00.317Z,28.62
2018-06-30T09:45:31.206Z,28.91
2018-06-30T09:48:02.133Z,29.43
2018-06-30T09:50:33.101Z,29.73
2018-06-30T09:53:03.787Z,30.18
2018-06-30T09:55:34.381Z,30.69
2018-06-30T09:58:05.058Z,31.10
2018-06-30T10:00:40.667Z,31.53
2018-06-30T10:03:11.549Z,31.53
2018-06-30T10:05:42.433Z,31.46
2018-06-30T10:08:12.673Z,31.25
2018-06-30T10:10:43.341Z,31.20
2018-06-30T10:13:13.948Z,31.47
2018-06-30T10:15:44.658Z,32.07
2018-06-30T10:18:15.249Z,32.53
2018-06-30T10:20:45.954Z,33.00
2018-06-30T10:23:16.638Z,32.51
2018-06-30T10:25:47.377Z,32.22
2018-06-30T10:28:18.209Z,32.06
2018-06-30T10:30:48.913Z,31.90
2018-06-30T10:33:19.636Z,31.56
2018-06-30T10:35:50.414Z,31.52
2018-06-30T10:38:21.137Z,31.63
2018-06-30T10:40:51.465Z,31.60
2018-06-30T10:43:22.197Z,32.65
2018-06-30T10:45:52.970Z,34.08
2018-06-30T10:48:23.634Z,33.82
2018-06-30T10:50:54.385Z,34.09
2018-06-30T10:53:25.455Z,33.70
2018-06-30T10:55:56.325Z,33.30
2018-06-30T10:58:27.017Z,33.56
2018-06-30T11:00:57.986Z,33.63
2018-06-30T11:03:28.536Z,34.22
2018-06-30T11:05:59.709Z,33.65
2018-06-30T11:08:30.408Z,33.78
2018-06-30T11:11:01.245Z,34.62
2018-06-30T11:13:31.878Z,34.59
2018-06-30T11:16:02.970Z,34.66
2018-06-30T11:18:33.693Z,34.60
2018-06-30T11:21:04.552Z,34.17
2018-06-30T11:23:35.213Z,34.41
2018-06-30T11:26:06.195Z,33.17
2018-06-30T11:28:36.902Z,32.77
2018-06-30T11:31:07.622Z,32.94
2018-06-30T11:33:38.361Z,32.44
2018-06-30T11:36:09.129Z,32.69
2018-06-30T11:38:39.932Z,32.45
2018-06-30T11:41:10.612Z,32.33
2018-06-30T11:43:41.316Z,32.18
2018-06-30T11:46:11.989Z,32.43
2018-06-30T11:48:42.757Z,32.66
2018-06-30T11:51:13.555Z,33.52
2018-06-30T11:53:44.378Z,34.46
2018-06-30T11:56:15.179Z,34.51
2018-06-30T11:58:45.874Z,34.49
2018-06-30T12:01:16.778Z,35.02
2018-06-30T12:03:47.466Z,34.96
2018-06-30T12:06:18.249Z,34.76
2018-06-30T12:08:49.155Z,34.88
2018-06-30T12:11:19.958Z,35.23
2018-06-30T12:13:50.593Z,35.11
2018-06-30T12:16:21.785Z,35.03
2018-06-30T12:18:52.421Z,33.96
2018-06-30T12:21:23.530Z,33.81
2018-06-30T12:23:54.093Z,33.91
2018-06-30T12:26:24.836Z,33.74
2018-06-30T12:28:55.078Z,34.29
2018-06-30T12:31:25.797Z,35.21
2018-06-30T12:33:56.469Z,34.97
2018-06-30T12:36:27.313Z,34.81
2018-06-30T12:38:58.041Z,35.01
2018-06-30T12:41:28.666Z,35.09
2018-06-30T12:43:59.350Z,35.16
2018-06-30T12:46:30.321Z,34.67
2018-06-30T12:49:01.037Z,34.22
2018-06-30T12:51:32.043Z,34.35
2018-06-30T12:54:02.759Z,35.59
2018-06-30T12:56:33.486Z,35.24
2018-06-30T12:59:04.421Z,34.21
2018-06-30T13:01:35.141Z,34.65
2018-06-30T13:04:06.370Z,34.80
2018-06-30T13:06:37.082Z,34.97
2018-06-30T13:09:11.934Z,34.77
2018-06-30T13:11:42.869Z,35.02
2018-06-30T13:14:13.547Z,35.25
2018-06-30T13:16:44.358Z,35.20
2018-06-30T13:19:15.014Z,34.13
2018-06-30T13:21:45.855Z,33.64
2018-06-30T13:24:16.585Z,33.43
2018-06-30T13:26:47.401Z,33.72
2018-06-30T13:29:18.157Z,33.66
2018-06-30T13:31:48.969Z,34.26
2018-06-30T13:34:19.563Z,34.57
2018-06-30T13:36:50.389Z,34.35
2018-06-30T13:39:21.130Z,33.62
2018-06-30T13:41:51.938Z,33.60
2018-06-30T13:44:22.643Z,33.21
2018-06-30T13:46:53.513Z,33.06
2018-06-30T13:49:24.114Z,33.88
2018-06-30T13:51:54.994Z,35.10
2018-06-30T13:54:25.685Z,35.56
2018-06-30T13:56:56.554Z,35.41
2018-06-30T13:59:27.258Z,35.55
2018-06-30T14:01:57.849Z,36.06
2018-06-30T14:04:28.614Z,36.01
2018-06-30T14:06:59.126Z,35.80
2018-06-30T14:09:29.754Z,35.39
2018-06-30T14:12:00.516Z,35.97
2018-06-30T14:14:31.133Z,34.82
2018-06-30T14:17:01.984Z,35.07
2018-06-30T14:19:32.719Z,35.61
2018-06-30T14:22:03.693Z,35.74
2018-06-30T14:24:34.351Z,35.74
2018-06-30T14:27:05.093Z,35.77
2018-06-30T14:29:35.677Z,35.81
2018-06-30T14:32:06.464Z,35.23
2018-06-30T14:34:37.157Z,34.72
2018-06-30T14:37:07.942Z,34.85
2018-06-30T14:39:38.569Z,34.95
2018-06-30T14:42:09.425Z,36.11
2018-06-30T14:44:40.072Z,36.79
2018-06-30T14:47:11.098Z,36.28
2018-06-30T14:49:42.000Z,36.10
2018-06-30T14:52:12.761Z,36.86
2018-06-30T14:54:43.447Z,37.24
2018-06-30T14:57:14.166Z,37.08
2018-06-30T14:59:44.765Z,37.05
2018-06-30T15:02:15.515Z,36.47
2018-06-30T15:04:46.513Z,36.17
2018-06-30T15:07:17.217Z,36.40
2018-06-30T15:09:47.893Z,36.13
2018-06-30T15:12:18.714Z,36.19
2018-06-30T15:14:49.363Z,36.57
2018-06-30T15:17:20.242Z,36.58
2018-06-30T15:19:50.920Z,36.36
2018-06-30T15:22:21.819Z,35.65
2018-06-30T15:24:52.454Z,35.74
2018-06-30T15:27:23.020Z,35.54
2018-06-30T15:29:53.653Z,35.08
2018-06-30T15:32:24.530Z,35.16
2018-06-30T15:34:54.528Z,35.49
2018-06-30T15:37:25.639Z,35.72
2018-06-30T15:39:56.444Z,35.81
2018-06-30T15:42:27.565Z,35.81
2018-06-30T15:44:58.318Z,35.39
2018-06-30T15:47:29.241Z,35.37
2018-06-30T15:49:59.948Z,35.71
2018-06-30T15:52:30.672Z,34.84
2018-06-30T15:55:01.178Z,34.75
2018-06-30T15:57:32.130Z,34.84
2018-06-30T16:00:02.801Z,34.61
2018-06-30T16:02:33.838Z,34.70
2018-06-30T16:05:04.551Z,34.58
2018-06-30T16:07:35.226Z,34.55
2018-06-30T16:10:05.961Z,34.59
2018-06-30T16:12:36.697Z,34.48
2018-06-30T16:15:07.624Z,34.76
2018-06-30T16:17:38.814Z,34.66
2018-06-30T16:20:09.509Z,34.45
2018-06-30T16:22:40.090Z,34.49
2018-06-30T16:25:10.716Z,34.23
2018-06-30T16:27:41.594Z,34.14
2018-06-30T16:30:13.145Z,33.84
2018-06-30T16:32:44.161Z,33.93
2018-06-30T16:35:14.876Z,33.80
2018-06-30T16:37:46.506Z,33.93
2018-06-30T16:40:16.759Z,33.84
2018-06-30T16:42:47.397Z,33.88
2018-06-30T16:45:18.027Z,34.09
2018-06-30T16:47:48.739Z,34.06
2018-06-30T16:50:19.449Z,34.03
2018-06-30T16:52:50.209Z,34.44
2018-06-30T16:55:20.934Z,34.28
2018-06-30T16:57:51.881Z,34.37
2018-06-30T17:00:22.630Z,34.30
2018-06-30T17:02:53.466Z,34.01
2018-06-30T17:05:24.127Z,34.07
2018-06-30T17:07:54.962Z,33.95
2018-06-30T17:10:25.607Z,33.84
2018-06-30T17:12:56.537Z,33.69
2018-06-30T17:15:27.281Z,33.52
2018-06-30T17:17:58.298Z,33.24
2018-06-30T17:20:28.941Z,32.93
2018-06-30T17:22:59.926Z,32.63
2018-06-30T17:25:30.525Z,32.63
2018-06-30T17:28:01.449Z,32.40
2018-06-30T17:30:32.065Z,32.48
2018-06-30T17:33:02.861Z,32.31
2018-06-30T17:35:33.549Z,32.22
2018-06-30T17:38:04.273Z,32.02
2018-06-30T17:40:34.909Z,31.75
2018-06-30T17:43:05.774Z,31.51
2018-06-30T17:45:36.482Z,31.36
2018-06-30T17:48:07.360Z,31.36
2018-06-30T17:50:38.054Z,31.39
2018-06-30T17:53:08.842Z,31.35
2018-06-30T17:55:39.569Z,31.24
2018-06-30T17:58:10.331Z,31.34
2018-06-30T18:00:40.814Z,31.27
2018-06-30T18:03:11.613Z,31.15
2018-06-30T18:05:42.298Z,31.06
2018-06-30T18:08:13.229Z,31.23
2018-06-30T18:10:43.915Z,31.38
2018-06-30T18:13:14.629Z,31.24
2018-06-30T18:15:45.321Z,31.08
2018-06-30T18:18:16.162Z,30.99
2018-06-30T18:20:46.877Z,31.00
2018-06-30T18:23:17.753Z,31.03
2018-06-30T18:25:48.529Z,30.82
2018-06-30T18:28:19.213Z,30.63
2018-06-30T18:30:49.386Z,30.45
2018-06-30T18:33:20.401Z,30.46
2018-06-30T18:35:51.102Z,30.40
2018-06-30T18:38:21.873Z,30.38
2018-06-30T18:40:52.561Z,30.05
2018-06-30T18:43:23.429Z,29.94
2018-06-30T18:45:54.138Z,29.71
2018-06-30T18:48:24.865Z,29.66
2018-06-30T18:50:55.551Z,29.59
2018-06-30T18:53:26.550Z,29.35
2018-06-30T18:55:57.482Z,29.38
2018-06-30T18:58:28.385Z,29.14
2018-06-30T19:00:59.001Z,28.88
2018-06-30T19:03:29.769Z,28.72
2018-06-30T19:06:00.418Z,28.64
2018-06-30T19:08:31.287Z,28.65
2018-06-30T19:11:01.880Z,28.62
2018-06-30T19:13:32.694Z,28.71
2018-06-30T19:16:03.610Z,28.67
2018-06-30T19:18:34.539Z,28.49
2018-06-30T19:21:05.035Z,28.66
2018-06-30T19:23:35.761Z,28.75
2018-06-30T19:26:07.426Z,28.64
2018-06-30T19:28:39.136Z,28.63
2018-06-30T19:31:10.706Z,28.47
2018-06-30T19:33:41.490Z,28.26
2018-06-30T19:36:12.141Z,27.89
2018-06-30T19:38:42.915Z,27.69
2018-06-30T19:41:14.339Z,27.78
2018-06-30T19:43:45.341Z,27.45
2018-06-30T19:46:15.953Z,27.26
2018-06-30T19:48:47.619Z,27.11
2018-06-30T19:51:18.380Z,27.18
2018-06-30T19:53:49.105Z,27.15
2018-06-30T19:56:19.826Z,27.09
2018-06-30T19:58:50.681Z,27.00
2018-06-30T20:01:21.349Z,27.01
2018-06-30T20:03:52.214Z,27.05
2018-06-30T20:06:22.881Z,27.03
2018-06-30T20:08:53.614Z,26.98
2018-06-30T20:11:24.258Z,27.08
2018-06-30T20:13:55.489Z,27.10
2018-06-30T20:16:26.338Z,27.17
2018-06-30T20:18:57.033Z,27.18
2018-06-30T20:21:27.701Z,27.17
2018-06-30T20:23:58.525Z,27.24
2018-06-30T20:26:29.215Z,27.04
2018-06-30T20:28:59.869Z,27.05
2018-06-30T20:31:30.613Z,26.94
2018-06-30T20:34:01.510Z,26.71
2018-06-30T20:36:32.409Z,26.78
2018-06-30T20:39:03.294Z,26.65
2018-06-30T20:41:33.990Z,26.53
2018-06-30T20:44:04.879Z,26.56
2018-06-30T20:46:35.450Z,26.59
2018-06-30T20:49:06.346Z,26.63
2018-06-30T20:51:37.113Z,26.53
2018-06-30T20:54:07.983Z,26.41
2018-06-30T20:56:38.791Z,26.39
2018-06-30T20:59:09.506Z,26.45
2018-06-30T21:01:40.208Z,26.51
2018-06-30T21:04:11.150Z,26.49
2018-06-30T21:06:41.890Z,26.40
2018-06-30T21:09:13.119Z,26.59
2018-06-30T21:11:43.730Z,26.32
2018-06-30T21:14:14.409Z,26.18
2018-06-30T21:16:45.066Z,26.10
2018-06-30T21:19:16.062Z,26.16
2018-06-30T21:21:46.741Z,26.16
2018-06-30T21:24:17.880Z,26.05
2018-06-30T21:26:48.437Z,26.25
2018-06-30T21:29:19.147Z,26.10
2018-06-30T21:31:49.709Z,26.19
2018-06-30T21:34:20.521Z,26.11
2018-06-30T21:36:51.317Z,26.11
2018-06-30T21:39:22.026Z,26.01
2018-06-30T21:41:52.571Z,25.94
2018-06-30T21:44:23.292Z,26.03
2018-06-30T21:46:54.421Z,26.06
2018-06-30T21:49:25.174Z,26.09
2018-06-30T21:51:55.997Z,26.05
2018-06-30T21:54:26.648Z,26.15
2018-06-30T21:56:57.245Z,26.08
2018-06-30T21:59:28.045Z,25.88
2018-06-30T22:01:58.693Z,26.07
2018-06-30T22:04:29.482Z,26.26
2018-06-30T22:07:00.394Z,26.18
2018-06-30T22:09:31.054Z,26.20
2018-06-30T22:12:01.831Z,26.40
2018-06-30T22:14:32.518Z,26.21
2018-06-30T22:17:03.353Z,26.13
2018-06-30T22:19:34.021Z,26.11
2018-06-30T22:22:04.982Z,26.14
2018-06-30T22:24:35.542Z,26.14
2018-06-30T22:27:06.489Z,26.29
2018-06-30T22:29:37.072Z,26.18
2018-06-30T22:32:09.373Z,26.18
2018-06-30T22:34:40.062Z,26.19
2018-06-30T22:37:10.666Z,26.13
2018-06-30T22:39:57.399Z,26.28
2018-06-30T22:42:28.141Z,26.27
2018-06-30T22:44:58.753Z,26.36
2018-06-30T22:47:29.433Z,26.10
2018-06-30T22:50:00.178Z,26.31
2018-06-30T22:52:30.922Z,26.18
2018-06-30T22:55:01.470Z,26.33
2018-06-30T22:57:32.293Z,26.30
2018-06-30T23:00:03.013Z,26.28
2018-06-30T23:02:33.772Z,26.17
2018-06-30T23:05:04.554Z,26.22
2018-06-30T23:07:35.598Z,26.24
2018-06-30T23:10:06.474Z,26.35
2018-06-30T23:12:37.158Z,26.31
2018-06-30T23:15:08.391Z,26.19
2018-06-30T23:17:40.052Z,25.97
2018-06-30T23:20:10.676Z,26.06
2018-06-30T23:23:04.527Z,26.10
2018-06-30T23:25:35.749Z,26.08
2018-06-30T23:28:06.508Z,25.94
2018-06-30T23:30:37.256Z,25.96
2018-06-30T23:33:07.974Z,25.90
2018-06-30T23:35:38.433Z,25.86
2018-06-30T23:38:09.166Z,25.86
2018-06-30T23:40:39.842Z,25.86
2018-06-30T23:43:10.654Z,25.74
2018-06-30T23:45:41.414Z,25.90
2018-06-30T23:48:12.505Z,25.82
2018-06-30T23:50:43.134Z,25.83
2018-06-30T23:53:13.873Z,25.73
2018-06-30T23:55:44.598Z,25.63
2018-06-30T23:58:15.285Z,25.47
